KAPC

Napa County Airport

Napa, California, USA
METAR KAPC 241054Z AUTO 00000KT 9SM CLR 08/07 A2985 RMK AO2 SLP101 T00830072
Observed Flight Rules
Sep-24 @ 10:54 UTC (38 minutes ago) Visual Flight Rules
Visibility Clouds
9 miles
  • Clear skies
Temperatures Readings
Current 8°C / 46°F
Dewpoint 7°C / 45°F
Humidity 93%
Altimeter 29.85" Hg
Pressure 1010.1 hPa
Elevation 13
METAR KAPC 241054Z AUTO 00000KT 9SM CLR 08/07 A2985 RMK AO2 SLP101 T00830072
Observed Flight Rules
Sep-24 @ 10:54 UTC
(38 minutes ago)
VFR
Clouds
  • Clear skies
Temperature Dewpoint
8°C / 46°F 7°C / 45°F
Humidity Altimeter Pressure
93% 29.85" Hg 1010.1 hPa